Time;durP1;ratioP1;P1;durP2;ratioP2;P2;SDS_P1;SDS_P2;PMS_P1;PMS_P2;Temp;Humidity;BMP_temperature;BMP_pressure;BME280_temperature;BME280_humidity;BME280_pressure;Samples;Min_cycle;Max_cycle;Signal;HPM_P1;HPM_P2
2022/09/23 00:00:45;;;;;;;2.60;2.50;;;9.00;99.90;;;;;;5031229;28;20203;-82
2022/09/23 00:03:12;;;;;;;3.30;3.00;;;9.00;99.90;;;;;;5031241;28;20169;-82
2022/09/23 00:05:38;;;;;;;2.73;2.63;;;8.90;99.90;;;;;;5031190;28;20181;-82
2022/09/23 00:08:10;;;;;;;3.30;3.10;;;8.90;99.90;;;;;;5031128;28;20173;-83
2022/09/23 00:10:38;;;;;;;3.00;2.80;;;8.80;99.90;;;;;;5031154;28;20207;-83
2022/09/23 00:13:04;;;;;;;3.07;2.87;;;8.80;99.90;;;;;;5031171;28;20207;-83
2022/09/23 00:15:32;;;;;;;3.17;2.90;;;8.80;99.90;;;;;;5030981;28;20183;-83
2022/09/23 00:17:58;;;;;;;3.20;3.00;;;8.70;99.90;;;;;;5031093;28;20815;-83
2022/09/23 00:20:24;;;;;;;3.13;2.80;;;8.60;99.90;;;;;;5037430;28;20200;-82
2022/09/23 00:22:50;;;;;;;3.20;2.90;;;8.60;99.90;;;;;;5036843;28;20178;-82
2022/09/23 00:25:16;;;;;;;3.20;2.90;;;8.50;99.90;;;;;;5031664;28;20184;-83
2022/09/23 00:27:42;;;;;;;2.87;2.70;;;8.50;99.90;;;;;;5031274;28;20234;-83
2022/09/23 00:30:09;;;;;;;2.90;2.70;;;8.60;99.90;;;;;;5037643;28;20215;-83
2022/09/23 00:32:36;;;;;;;2.70;2.60;;;8.60;99.90;;;;;;5057002;28;20171;-83
2022/09/23 00:35:03;;;;;;;2.83;2.67;;;8.60;99.90;;;;;;5050973;28;20193;-83
2022/09/23 00:37:29;;;;;;;3.10;2.90;;;8.60;99.90;;;;;;5031334;28;20194;-83
2022/09/23 00:39:55;;;;;;;3.37;2.73;;;8.60;99.90;;;;;;5029505;28;20267;-83
2022/09/23 00:42:22;;;;;;;3.17;2.97;;;8.50;99.90;;;;;;5030337;28;20222;-82
2022/09/23 00:44:53;;;;;;;3.40;3.10;;;8.50;99.90;;;;;;5030358;28;20227;-83
2022/09/23 00:47:27;;;;;;;3.37;3.07;;;8.60;99.90;;;;;;5030378;28;20172;-82
2022/09/23 00:50:03;;;;;;;4.83;2.93;;;8.60;99.90;;;;;;5029103;28;20175;-83
2022/09/23 00:52:31;;;;;;;3.37;3.20;;;8.50;99.90;;;;;;5030294;28;20170;-83
2022/09/23 00:54:58;;;;;;;3.30;3.10;;;8.60;99.90;;;;;;5030470;28;20198;-83
2022/09/23 00:57:25;;;;;;;3.07;2.87;;;8.60;99.90;;;;;;5030344;28;20176;-82
2022/09/23 00:59:51;;;;;;;3.00;2.80;;;8.50;99.90;;;;;;5030128;28;20176;-83
2022/09/23 01:02:22;;;;;;;3.43;2.93;;;8.60;99.90;;;;;;5045302;28;20782;-82
2022/09/23 01:04:49;;;;;;;3.50;3.30;;;8.50;99.90;;;;;;5029029;28;20176;-82
2022/09/23 01:07:16;;;;;;;3.03;2.87;;;8.50;99.90;;;;;;5030384;28;20182;-82
2022/09/23 01:09:44;;;;;;;2.97;2.83;;;8.50;99.90;;;;;;5030128;28;20272;-83
2022/09/23 01:12:18;;;;;;;3.00;2.80;;;8.50;99.90;;;;;;5029253;28;20170;-83
2022/09/23 01:15:00;;;;;;;3.23;2.93;;;8.50;99.90;;;;;;5030240;28;20175;-83
2022/09/23 01:17:39;;;;;;;2.67;2.57;;;8.50;99.90;;;;;;5030048;28;20175;-85
2022/09/23 01:20:26;;;;;;;3.40;3.20;;;8.60;99.90;;;;;;5030231;28;20174;-82
2022/09/23 01:23:18;;;;;;;3.23;3.03;;;8.60;99.90;;;;;;5029956;28;20271;-83
2022/09/23 01:26:21;;;;;;;3.20;3.00;;;8.60;99.90;;;;;;5029978;28;20171;-83
2022/09/23 01:29:17;;;;;;;3.13;2.83;;;8.60;99.90;;;;;;5029906;28;20175;-83
2022/09/23 01:31:58;;;;;;;3.13;2.93;;;8.60;99.90;;;;;;5030248;28;20171;-82
2022/09/23 01:34:40;;;;;;;3.33;3.10;;;8.60;99.90;;;;;;5030041;28;20163;-83
2022/09/23 01:37:27;;;;;;;3.03;2.83;;;8.50;99.90;;;;;;5030224;28;20166;-83
2022/09/23 01:40:37;;;;;;;3.23;3.03;;;8.50;99.90;;;;;;5028896;28;20175;-82
2022/09/23 01:43:41;;;;;;;3.30;3.03;;;8.40;99.90;;;;;;5029865;28;20171;-83
2022/09/23 01:46:16;;;;;;;3.30;3.10;;;8.40;99.90;;;;;;5029564;28;20260;-83
2022/09/23 01:49:09;;;;;;;3.77;2.77;;;8.40;99.90;;;;;;5029617;28;20521;-82
2022/09/23 01:51:40;;;;;;;3.30;3.00;;;8.40;99.90;;;;;;5022161;28;20194;-83
2022/09/23 01:54:30;;;;;;;3.67;3.37;;;8.30;99.90;;;;;;5029710;28;20263;-83
2022/09/23 01:57:22;;;;;;;7.13;3.20;;;8.20;99.90;;;;;;5029882;28;20195;-83
2022/09/23 02:00:10;;;;;;;4.67;4.00;;;8.20;99.90;;;;;;5029748;28;20172;-83
2022/09/23 02:02:58;;;;;;;4.37;3.13;;;8.20;99.90;;;;;;5024236;28;20203;-83
2022/09/23 02:05:41;;;;;;;3.50;3.20;;;8.30;99.90;;;;;;5053997;28;20200;-84
2022/09/23 02:08:15;;;;;;;2.87;2.67;;;8.20;99.90;;;;;;5047301;28;20241;-83
2022/09/23 02:10:59;;;;;;;3.13;2.93;;;8.20;99.90;;;;;;5032554;28;20192;-85
2022/09/23 02:13:31;;;;;;;5.40;3.40;;;8.20;99.90;;;;;;5029653;28;20180;-83
2022/09/23 02:16:02;;;;;;;3.00;2.70;;;8.20;99.90;;;;;;5029685;28;20159;-83
2022/09/23 02:18:33;;;;;;;3.27;3.03;;;8.20;99.90;;;;;;5029589;28;20164;-83
2022/09/23 02:21:05;;;;;;;3.83;3.10;;;8.20;99.90;;;;;;5029329;28;20743;-83
2022/09/23 02:23:44;;;;;;;3.40;3.20;;;8.10;99.90;;;;;;5031015;28;20198;-83
2022/09/23 02:26:30;;;;;;;3.43;3.23;;;8.20;99.90;;;;;;5033210;28;20168;-83
2022/09/23 02:29:35;;;;;;;5.03;3.13;;;8.10;99.90;;;;;;5033113;28;20174;-83
2022/09/23 02:32:16;;;;;;;3.47;3.23;;;8.10;99.90;;;;;;5025369;28;20191;-83
2022/09/23 02:34:54;;;;;;;3.23;3.03;;;8.10;99.90;;;;;;5032804;28;20161;-83
2022/09/23 02:37:34;;;;;;;3.43;3.10;;;8.00;99.90;;;;;;5032794;28;20167;-83
2022/09/23 02:40:13;;;;;;;3.47;3.20;;;7.90;99.90;;;;;;5032781;28;20175;-83
2022/09/23 02:43:02;;;;;;;3.00;2.80;;;7.90;99.90;;;;;;5032669;28;20187;-83
2022/09/23 02:45:28;;;;;;;3.80;3.50;;;7.90;99.90;;;;;;5031208;28;20262;-83
2022/09/23 02:48:02;;;;;;;3.50;3.30;;;7.90;99.90;;;;;;5032679;28;20701;-83
2022/09/23 02:50:29;;;;;;;3.10;2.87;;;7.80;99.90;;;;;;5032775;28;20167;-84
2022/09/23 02:52:56;;;;;;;4.47;3.50;;;7.80;99.90;;;;;;5031285;28;20197;-83
2022/09/23 02:55:26;;;;;;;3.77;3.47;;;7.70;99.90;;;;;;5032356;28;20182;-83
2022/09/23 02:57:52;;;;;;;3.53;3.23;;;7.60;99.90;;;;;;5031014;28;20183;-83
2022/09/23 03:00:19;;;;;;;3.63;3.23;;;7.60;99.90;;;;;;5032607;28;20186;-83
2022/09/23 03:02:55;;;;;;;3.60;3.30;;;7.50;99.90;;;;;;5032434;28;20202;-83
2022/09/23 03:05:30;;;;;;;3.43;3.13;;;7.50;99.90;;;;;;5032725;28;20167;-84
2022/09/23 03:08:24;;;;;;;3.50;3.30;;;7.50;99.90;;;;;;5032479;28;20534;-83
2022/09/23 03:11:06;;;;;;;3.10;2.90;;;7.50;99.90;;;;;;5032403;28;20248;-83
2022/09/23 03:13:45;;;;;;;3.53;3.23;;;7.40;99.90;;;;;;5031171;28;20195;-83
2022/09/23 03:16:23;;;;;;;3.37;3.07;;;7.40;99.90;;;;;;5032565;28;20645;-83
2022/09/23 03:18:57;;;;;;;6.70;3.50;;;7.40;99.90;;;;;;5032252;28;20829;-82
2022/09/23 03:21:39;;;;;;;3.57;3.27;;;7.40;99.90;;;;;;5032226;28;20196;-83
2022/09/23 03:24:08;;;;;;;3.80;3.50;;;7.40;99.90;;;;;;5032065;28;20160;-83
2022/09/23 03:26:37;;;;;;;4.07;3.70;;;7.40;99.90;;;;;;5030543;28;20179;-83
2022/09/23 03:29:10;;;;;;;3.13;2.93;;;7.40;99.90;;;;;;5030814;28;20182;-83
2022/09/23 03:31:41;;;;;;;3.57;3.37;;;7.40;99.90;;;;;;5032831;28;20944;-83
2022/09/23 03:34:17;;;;;;;4.33;3.40;;;7.40;99.90;;;;;;5032239;28;20167;-83
2022/09/23 03:37:06;;;;;;;3.97;3.10;;;7.50;99.90;;;;;;5032835;28;20165;-81
2022/09/23 03:39:41;;;;;;;3.80;3.50;;;7.50;99.90;;;;;;5056301;28;20166;-83
2022/09/23 03:42:15;;;;;;;3.83;3.53;;;7.50;99.90;;;;;;5052005;28;20202;-83
2022/09/23 03:44:46;;;;;;;3.40;3.20;;;7.40;99.90;;;;;;5033023;28;20228;-83
2022/09/23 03:47:14;;;;;;;5.10;3.60;;;7.40;99.90;;;;;;5032434;28;20531;-83
2022/09/23 03:49:43;;;;;;;4.20;3.33;;;7.30;99.90;;;;;;5033593;28;20182;-83
2022/09/23 03:52:09;;;;;;;3.60;3.30;;;7.40;99.90;;;;;;5040379;28;20178;-83
2022/09/23 03:54:35;;;;;;;3.37;3.10;;;7.40;99.90;;;;;;5030994;28;20183;-83
2022/09/23 03:57:01;;;;;;;3.73;3.47;;;7.40;99.90;;;;;;5031596;28;20206;-83
2022/09/23 03:59:31;;;;;;;3.47;3.27;;;7.50;99.90;;;;;;5031256;28;20623;-83
2022/09/23 04:01:58;;;;;;;3.57;3.30;;;7.50;99.90;;;;;;5031165;28;20208;-83
2022/09/23 04:04:26;;;;;;;3.80;3.60;;;7.50;99.90;;;;;;5031036;28;20175;-83
2022/09/23 04:06:53;;;;;;;4.03;3.60;;;7.50;99.90;;;;;;5031319;28;20183;-83
2022/09/23 04:09:19;;;;;;;3.30;3.10;;;7.30;99.90;;;;;;5031267;28;20173;-83
2022/09/23 04:11:46;;;;;;;3.10;2.90;;;7.40;99.90;;;;;;5030967;28;20266;-83
2022/09/23 04:14:13;;;;;;;5.23;3.83;;;7.40;99.90;;;;;;5031042;28;20178;-83
2022/09/23 04:16:39;;;;;;;4.13;3.67;;;7.40;99.90;;;;;;5031034;28;20699;-85
2022/09/23 04:19:05;;;;;;;3.83;3.63;;;7.40;99.90;;;;;;5030828;28;20186;-82
2022/09/23 04:21:31;;;;;;;3.50;3.17;;;7.30;99.90;;;;;;5030858;28;20216;-83
2022/09/23 04:23:57;;;;;;;3.90;3.60;;;7.40;99.90;;;;;;5030614;28;20209;-83
2022/09/23 04:26:23;;;;;;;3.53;3.33;;;7.40;99.90;;;;;;5030790;28;20195;-83
2022/09/23 04:28:49;;;;;;;3.50;3.20;;;7.40;99.90;;;;;;5030871;28;20172;-83
2022/09/23 04:31:15;;;;;;;4.47;3.70;;;7.40;99.90;;;;;;5031531;28;20293;-82
2022/09/23 04:33:40;;;;;;;3.67;3.40;;;7.30;99.90;;;;;;5030917;28;20236;-83
2022/09/23 04:36:06;;;;;;;3.77;3.47;;;7.40;99.90;;;;;;5030517;28;20177;-84
2022/09/23 04:38:33;;;;;;;4.27;3.57;;;7.40;99.90;;;;;;5030580;28;20540;-84
2022/09/23 04:40:59;;;;;;;3.73;3.53;;;7.50;99.90;;;;;;5030525;28;20205;-83
2022/09/23 04:43:25;;;;;;;3.80;3.50;;;7.40;99.90;;;;;;5030330;28;20197;-83
2022/09/23 04:45:58;;;;;;;5.13;3.90;;;7.40;99.90;;;;;;5030020;28;20222;-83
2022/09/23 04:48:24;;;;;;;4.57;3.23;;;7.40;99.90;;;;;;5030355;28;20178;-83
2022/09/23 04:50:50;;;;;;;3.60;3.30;;;7.50;99.90;;;;;;5030461;28;20262;-83
2022/09/23 04:53:16;;;;;;;3.50;3.30;;;7.40;99.90;;;;;;5030521;28;20645;-83
2022/09/23 04:55:42;;;;;;;4.03;3.53;;;7.40;99.90;;;;;;5028821;28;20352;-83
2022/09/23 04:58:08;;;;;;;3.57;3.27;;;7.40;99.90;;;;;;5030368;28;20184;-83
2022/09/23 05:00:35;;;;;;;3.50;3.30;;;7.30;99.90;;;;;;5029349;28;20179;-84
2022/09/23 05:03:01;;;;;;;4.50;3.40;;;7.30;99.90;;;;;;5029570;28;20337;-83
2022/09/23 05:05:28;;;;;;;3.80;3.50;;;7.30;99.90;;;;;;5034321;28;20199;-83
2022/09/23 05:07:54;;;;;;;3.47;3.27;;;7.40;99.90;;;;;;5030374;28;20174;-83
2022/09/23 05:10:21;;;;;;;4.70;3.50;;;7.30;99.90;;;;;;5030594;28;20201;-85
2022/09/23 05:12:47;;;;;;;3.53;3.23;;;7.30;99.90;;;;;;5040204;28;20185;-84
2022/09/23 05:15:15;;;;;;;3.97;3.77;;;7.20;99.90;;;;;;5053963;28;20225;-83
2022/09/23 05:17:42;;;;;;;3.70;3.43;;;7.20;99.90;;;;;;5046627;28;20186;-83
2022/09/23 05:20:09;;;;;;;5.20;3.90;;;7.20;99.90;;;;;;5034720;28;20181;-84
2022/09/23 05:22:35;;;;;;;4.00;3.67;;;7.30;99.90;;;;;;5032983;28;20284;-84
2022/09/23 05:25:01;;;;;;;6.47;3.60;;;7.30;99.90;;;;;;5034201;28;20777;-85
2022/09/23 05:27:27;;;;;;;3.50;3.30;;;7.40;99.90;;;;;;5031419;28;20178;-84
2022/09/23 05:29:53;;;;;;;4.00;3.70;;;7.40;99.90;;;;;;5040269;28;20744;-85
2022/09/23 05:32:20;;;;;;;5.50;4.30;;;7.40;99.90;;;;;;5039647;28;20581;-85
2022/09/23 05:34:46;;;;;;;4.43;4.00;;;7.40;99.90;;;;;;5032111;28;20177;-85
2022/09/23 05:37:12;;;;;;;3.80;3.50;;;7.50;99.90;;;;;;5030102;28;20179;-85
2022/09/23 05:39:38;;;;;;;4.30;3.90;;;7.60;99.90;;;;;;5029966;28;20252;-85
2022/09/23 05:42:04;;;;;;;3.63;3.33;;;7.60;99.90;;;;;;5028573;28;20219;-85
2022/09/23 05:44:29;;;;;;;4.10;3.70;;;7.70;99.90;;;;;;5029679;28;20230;-84
2022/09/23 05:46:55;;;;;;;3.87;3.47;;;7.70;99.90;;;;;;5029661;28;20398;-84
2022/09/23 05:49:21;;;;;;;4.07;3.77;;;7.80;99.90;;;;;;5029998;28;20179;-84
2022/09/23 05:51:47;;;;;;;4.60;3.60;;;7.80;99.90;;;;;;5029987;28;20226;-84
2022/09/23 05:54:12;;;;;;;4.53;3.50;;;7.90;99.90;;;;;;5028584;28;20178;-84
2022/09/23 05:56:38;;;;;;;5.87;5.33;;;7.90;99.90;;;;;;5030041;28;20179;-83
2022/09/23 05:59:05;;;;;;;5.00;3.77;;;7.90;99.90;;;;;;5033858;28;20168;-83
2022/09/23 06:01:34;;;;;;;3.63;3.43;;;8.00;99.90;;;;;;5040228;28;20206;-84
2022/09/23 06:04:01;;;;;;;3.77;3.57;;;8.00;99.90;;;;;;5033841;28;20651;-84
2022/09/23 06:06:29;;;;;;;4.20;3.90;;;8.00;99.90;;;;;;5034059;28;20267;-83
2022/09/23 06:08:55;;;;;;;6.33;4.20;;;7.90;99.90;;;;;;5033607;28;20195;-84
2022/09/23 06:11:21;;;;;;;3.90;3.60;;;8.00;99.90;;;;;;5032404;28;20237;-84
2022/09/23 06:13:48;;;;;;;7.27;3.70;;;8.10;99.90;;;;;;5033442;28;20568;-83
2022/09/23 06:16:15;;;;;;;4.00;3.60;;;8.10;99.90;;;;;;5032073;28;20178;-84
2022/09/23 06:18:43;;;;;;;4.90;3.80;;;8.10;99.90;;;;;;5048679;28;20180;-84
2022/09/23 06:21:16;;;;;;;7.40;3.67;;;8.20;99.90;;;;;;5033509;28;20211;-83
2022/09/23 06:23:42;;;;;;;3.73;3.43;;;8.30;99.90;;;;;;5033623;28;20179;-84
2022/09/23 06:26:10;;;;;;;4.13;3.73;;;8.40;99.90;;;;;;5033371;28;20651;-84
2022/09/23 06:28:39;;;;;;;4.27;3.80;;;8.50;99.90;;;;;;5033389;28;20179;-83
2022/09/23 06:31:07;;;;;;;5.00;4.00;;;8.50;99.90;;;;;;5032063;28;20524;-84
2022/09/23 06:33:33;;;;;;;4.90;4.23;;;8.60;99.90;;;;;;5033817;28;20662;-84
2022/09/23 06:36:01;;;;;;;8.17;5.90;;;8.60;99.90;;;;;;5033506;28;20165;-83
2022/09/23 06:38:29;;;;;;;6.53;4.27;;;8.70;99.90;;;;;;5034758;28;20193;-83
2022/09/23 06:40:57;;;;;;;4.70;4.40;;;8.70;99.90;;;;;;5034155;28;20701;-83
2022/09/23 06:43:24;;;;;;;4.07;3.77;;;8.70;99.90;;;;;;5034366;28;20180;-83
2022/09/23 06:45:59;;;;;;;6.53;4.17;;;8.70;99.90;;;;;;5034105;28;20573;-84
2022/09/23 06:48:27;;;;;;;4.53;3.97;;;8.80;99.90;;;;;;5049157;28;20202;-83
2022/09/23 06:50:53;;;;;;;7.53;4.33;;;8.90;99.90;;;;;;5052792;28;20167;-83
2022/09/23 06:53:23;;;;;;;5.00;3.87;;;9.00;99.90;;;;;;5049257;28;20181;-84
2022/09/23 06:56:01;;;;;;;5.30;4.37;;;9.10;99.90;;;;;;5043315;28;20639;-84
2022/09/23 06:58:28;;;;;;;5.40;3.83;;;9.20;99.90;;;;;;5039621;28;20186;-83
2022/09/23 07:01:04;;;;;;;4.30;3.97;;;9.30;99.90;;;;;;5035812;28;20238;-83
2022/09/23 07:03:33;;;;;;;5.17;4.20;;;9.20;99.90;;;;;;5035839;28;20326;-84
2022/09/23 07:06:00;;;;;;;4.67;4.03;;;9.20;99.90;;;;;;5035306;28;20181;-84
2022/09/23 07:08:28;;;;;;;9.57;4.73;;;9.30;99.90;;;;;;5036564;28;20199;-83
2022/09/23 07:10:57;;;;;;;4.63;4.17;;;9.30;99.90;;;;;;5034454;28;20189;-84
2022/09/23 07:13:23;;;;;;;4.37;3.97;;;9.30;99.90;;;;;;5050272;28;20248;-84
2022/09/23 07:16:03;;;;;;;4.50;4.03;;;9.50;99.90;;;;;;5035389;28;20652;-85
2022/09/23 07:18:30;;;;;;;5.73;3.73;;;9.60;99.90;;;;;;5034067;28;20161;-85
2022/09/23 07:21:03;;;;;;;6.30;3.93;;;9.70;99.90;;;;;;5033050;28;20673;-83
2022/09/23 07:23:32;;;;;;;4.33;4.00;;;9.80;99.90;;;;;;5036764;28;20198;-82
2022/09/23 07:25:59;;;;;;;4.53;4.20;;;10.00;99.90;;;;;;5036011;28;20260;-83
2022/09/23 07:28:27;;;;;;;4.80;4.40;;;10.00;99.90;;;;;;5036300;28;20605;-84
2022/09/23 07:30:55;;;;;;;5.80;4.77;;;10.10;99.90;;;;;;5034216;28;20282;-84
2022/09/23 07:33:21;;;;;;;9.00;4.40;;;10.20;99.90;;;;;;5037284;28;20175;-83
2022/09/23 07:35:47;;;;;;;4.90;4.50;;;10.30;99.90;;;;;;5034414;28;20202;-84
2022/09/23 07:38:13;;;;;;;4.60;4.20;;;10.40;99.90;;;;;;5035602;28;20179;-84
2022/09/23 07:40:39;;;;;;;4.10;3.80;;;10.50;99.90;;;;;;5032239;28;20183;-83
2022/09/23 07:43:07;;;;;;;4.83;4.33;;;10.50;99.90;;;;;;5035898;28;20583;-84
2022/09/23 07:45:33;;;;;;;5.47;4.00;;;10.60;99.90;;;;;;5035828;28;20230;-84
2022/09/23 07:48:00;;;;;;;4.47;4.07;;;10.70;99.90;;;;;;5034357;28;20179;-84
2022/09/23 07:50:27;;;;;;;5.53;4.17;;;10.90;99.90;;;;;;5032776;28;20188;-84
2022/09/23 07:52:53;;;;;;;5.00;4.60;;;11.00;99.90;;;;;;5031667;28;20658;-84
2022/09/23 07:55:19;;;;;;;6.30;4.27;;;11.10;99.90;;;;;;5033809;28;20176;-83
2022/09/23 07:57:48;;;;;;;8.30;4.00;;;11.10;99.90;;;;;;5035466;28;20179;-84
2022/09/23 08:00:15;;;;;;;5.10;4.53;;;11.20;99.90;;;;;;5033819;28;20499;-85
2022/09/23 08:02:41;;;;;;;4.87;4.30;;;11.20;99.90;;;;;;5033077;28;20205;-85
2022/09/23 08:05:08;;;;;;;4.30;3.97;;;11.30;99.90;;;;;;5032458;28;20493;-83
2022/09/23 08:07:33;;;;;;;6.73;4.40;;;11.30;99.90;;;;;;5032794;28;20183;-83
2022/09/23 08:10:00;;;;;;;5.13;4.03;;;11.50;99.90;;;;;;5032610;28;20169;-82
2022/09/23 08:12:28;;;;;;;4.23;3.93;;;11.50;99.90;;;;;;5032586;28;20187;-84
2022/09/23 08:14:54;;;;;;;5.00;4.23;;;11.60;99.90;;;;;;5031490;28;20188;-84
2022/09/23 08:17:20;;;;;;;3.97;3.67;;;11.70;99.90;;;;;;5032787;28;20192;-84
2022/09/23 08:19:45;;;;;;;4.03;3.73;;;11.70;99.90;;;;;;5035036;28;20177;-84
2022/09/23 08:22:11;;;;;;;3.93;3.57;;;11.80;99.90;;;;;;5033541;28;20197;-84
2022/09/23 08:24:37;;;;;;;3.67;3.37;;;11.90;99.90;;;;;;5031462;28;20264;-83
2022/09/23 08:27:03;;;;;;;3.73;3.43;;;11.90;99.90;;;;;;5032093;28;20182;-85
2022/09/23 08:29:29;;;;;;;3.67;3.27;;;12.00;99.70;;;;;;5043010;28;20181;-85
2022/09/23 08:31:55;;;;;;;3.23;3.03;;;12.10;99.70;;;;;;5044253;28;20207;-85
2022/09/23 08:34:22;;;;;;;6.90;3.40;;;12.10;99.30;;;;;;5039261;28;20191;-83
2022/09/23 08:36:48;;;;;;;4.90;2.97;;;12.20;98.70;;;;;;5033317;28;20584;-83
2022/09/23 08:39:16;;;;;;;3.43;2.90;;;12.30;98.70;;;;;;5033734;28;20188;-84
2022/09/23 08:41:57;;;;;;;2.60;2.40;;;12.40;98.80;;;;;;5034817;28;20220;-84
2022/09/23 08:44:42;;;;;;;2.93;2.73;;;12.40;98.90;;;;;;5033210;28;20250;-83
2022/09/23 08:47:12;;;;;;;4.80;3.13;;;12.40;98.40;;;;;;5032336;28;20206;-83
2022/09/23 08:49:57;;;;;;;3.03;2.70;;;12.50;98.30;;;;;;5031194;28;20161;-84
2022/09/23 08:52:49;;;;;;;3.10;2.87;;;12.50;98.40;;;;;;5030832;28;20170;-84
2022/09/23 08:55:16;;;;;;;3.63;3.33;;;12.70;98.40;;;;;;5030298;28;20204;-82
2022/09/23 08:58:21;;;;;;;2.97;2.77;;;12.70;98.40;;;;;;5030323;28;20666;-84
2022/09/23 09:01:05;;;;;;;3.00;2.80;;;12.80;98.30;;;;;;5030510;28;20522;-83
2022/09/23 09:04:02;;;;;;;5.30;3.03;;;12.80;98.80;;;;;;5030859;28;20157;-84
2022/09/23 09:06:43;;;;;;;2.80;2.60;;;12.90;98.30;;;;;;5026418;28;20189;-84
2022/09/23 09:09:44;;;;;;;3.70;3.10;;;12.90;98.20;;;;;;5030480;28;20278;-83
2022/09/23 09:12:14;;;;;;;3.83;2.50;;;13.00;98.60;;;;;;5028278;28;20188;-83
2022/09/23 09:15:17;;;;;;;6.77;2.70;;;13.10;98.30;;;;;;5034444;28;20222;-84
2022/09/23 09:18:21;;;;;;;2.70;2.50;;;13.20;97.90;;;;;;5034786;28;20184;-83
2022/09/23 09:20:47;;;;;;;3.03;2.87;;;13.30;98.00;;;;;;4988027;28;20221;-84
2022/09/23 09:23:16;;;;;;;3.63;2.60;;;13.20;98.00;;;;;;4988438;28;20184;-83
2022/09/23 09:25:45;;;;;;;2.57;2.47;;;13.30;98.20;;;;;;4988696;28;20178;-83
2022/09/23 09:28:23;;;;;;;2.97;2.30;;;13.40;98.20;;;;;;4988512;28;20197;-83
2022/09/23 09:30:58;;;;;;;2.30;2.20;;;13.40;97.50;;;;;;4988367;28;20264;-83
2022/09/23 09:33:31;;;;;;;3.93;2.23;;;13.50;97.10;;;;;;4994647;28;20178;-84
2022/09/23 09:36:38;;;;;;;3.43;2.53;;;13.50;97.10;;;;;;4998273;28;20237;-83
2022/09/23 09:39:11;;;;;;;2.80;2.30;;;13.70;97.60;;;;;;4996406;28;20170;-83
2022/09/23 09:41:42;;;;;;;2.27;2.17;;;13.70;97.50;;;;;;4996642;28;20213;-83
2022/09/23 09:44:39;;;;;;;2.00;1.90;;;13.70;96.60;;;;;;4991582;28;20293;-84
2022/09/23 09:47:19;;;;;;;2.37;2.27;;;13.80;96.80;;;;;;4992154;28;20216;-83
2022/09/23 09:49:52;;;;;;;2.20;2.10;;;13.70;96.90;;;;;;4992275;28;20193;-83
2022/09/23 09:52:21;;;;;;;2.77;2.47;;;13.70;97.20;;;;;;4993446;28;20653;-84
2022/09/23 09:54:48;;;;;;;2.57;2.33;;;13.70;97.30;;;;;;4994490;28;20254;-84
2022/09/23 09:57:37;;;;;;;2.20;2.10;;;13.80;97.30;;;;;;5031500;28;20731;-84
2022/09/23 10:00:24;;;;;;;2.40;2.30;;;13.80;97.40;;;;;;5036197;28;20183;-84
2022/09/23 10:03:20;;;;;;;2.40;2.20;;;13.80;97.40;;;;;;5035194;28;20636;-83
2022/09/23 10:05:51;;;;;;;2.70;2.47;;;13.90;97.60;;;;;;5044166;28;20247;-83
2022/09/23 10:08:34;;;;;;;2.40;2.30;;;14.00;97.70;;;;;;5050020;28;20236;-83
2022/09/23 10:11:10;;;;;;;2.40;2.30;;;14.00;97.90;;;;;;5048565;28;20187;-84
2022/09/23 10:13:36;;;;;;;2.67;2.47;;;14.00;98.00;;;;;;5037146;28;20234;-83
2022/09/23 10:16:03;;;;;;;2.70;2.50;;;14.00;98.10;;;;;;5037080;28;20169;-83
2022/09/23 10:18:47;;;;;;;5.00;2.60;;;14.00;98.20;;;;;;5036317;28;20200;-84
2022/09/23 10:21:19;;;;;;;2.80;2.60;;;14.00;98.00;;;;;;5034565;28;20736;-83
2022/09/23 10:24:05;;;;;;;2.80;2.70;;;14.10;98.50;;;;;;5033679;28;20164;-84
2022/09/23 10:26:43;;;;;;;3.57;3.37;;;14.20;98.60;;;;;;5033457;28;20573;-83
2022/09/23 10:29:28;;;;;;;4.50;2.80;;;14.30;98.40;;;;;;5034988;28;20175;-84
2022/09/23 10:32:27;;;;;;;2.97;2.67;;;14.30;98.20;;;;;;5034335;28;20536;-84
2022/09/23 10:34:56;;;;;;;2.50;2.40;;;14.40;98.00;;;;;;5033131;28;20169;-83
2022/09/23 10:37:32;;;;;;;5.53;2.80;;;14.40;97.50;;;;;;5035373;28;20177;-84
2022/09/23 10:48:35;;;;;;;2.80;2.60;;;14.60;96.00;;;;;;5033107;28;20211;-83
2022/09/23 10:51:13;;;;;;;2.30;2.20;;;14.60;96.50;;;;;;5032731;28;20189;-83
2022/09/23 10:53:57;;;;;;;3.70;2.40;;;14.60;96.00;;;;;;5033081;28;20162;-84
2022/09/23 10:56:40;;;;;;;2.90;2.80;;;14.60;95.80;;;;;;5033128;28;20177;-84
2022/09/23 10:59:26;;;;;;;2.70;2.50;;;14.60;95.40;;;;;;5032699;28;20172;-84
2022/09/23 11:02:03;;;;;;;2.10;2.00;;;14.60;95.70;;;;;;5032783;28;20668;-83
2022/09/23 11:04:51;;;;;;;2.63;1.80;;;14.70;95.20;;;;;;5032667;28;20560;-84
2022/09/23 11:07:22;;;;;;;2.30;2.20;;;14.80;95.60;;;;;;5032677;28;20177;-84
2022/09/23 11:09:48;;;;;;;1.70;1.70;;;14.80;94.80;;;;;;5031122;28;20222;-83
2022/09/23 11:12:26;;;;;;;4.50;1.83;;;14.80;94.90;;;;;;5032527;28;20653;-84
2022/09/23 11:15:11;;;;;;;3.47;1.90;;;14.80;94.70;;;;;;5032527;28;20621;-84
2022/09/23 11:17:45;;;;;;;1.90;1.80;;;14.80;95.00;;;;;;5032702;28;20228;-84
2022/09/23 11:20:32;;;;;;;2.57;2.37;;;14.80;94.00;;;;;;5032520;28;20542;-84
2022/09/23 11:23:06;;;;;;;1.87;1.70;;;14.80;93.90;;;;;;5032018;28;20251;-84
2022/09/23 11:25:55;;;;;;;2.20;2.00;;;14.80;94.40;;;;;;5032256;28;20186;-84
2022/09/23 11:28:42;;;;;;;2.00;1.90;;;14.80;94.30;;;;;;5010994;28;20189;-84
2022/09/23 11:31:37;;;;;;;1.73;1.73;;;14.80;94.40;;;;;;5032352;28;20193;-84
2022/09/23 11:34:06;;;;;;;2.97;2.20;;;14.90;94.90;;;;;;5032192;28;20594;-84
2022/09/23 11:37:05;;;;;;;2.33;2.10;;;15.00;95.10;;;;;;5033062;28;20201;-84
2022/09/23 11:39:39;;;;;;;3.60;1.90;;;15.10;94.40;;;;;;5033628;28;20170;-84
2022/09/23 11:42:12;;;;;;;1.97;1.83;;;15.10;92.90;;;;;;5036746;28;20211;-84
2022/09/23 11:44:48;;;;;;;2.23;2.00;;;15.30;92.90;;;;;;5053600;28;20285;-84
2022/09/23 11:47:23;;;;;;;2.00;1.77;;;15.30;92.90;;;;;;5047914;28;20164;-85
2022/09/23 11:49:56;;;;;;;1.60;1.60;;;15.30;93.00;;;;;;5031250;28;20179;-84
2022/09/23 11:52:35;;;;;;;2.70;2.30;;;15.20;92.40;;;;;;5031822;28;20172;-84
2022/09/23 11:55:16;;;;;;;1.87;1.77;;;15.20;93.00;;;;;;5031121;28;20169;-84
2022/09/23 11:58:00;;;;;;;2.10;2.00;;;15.30;92.70;;;;;;5031636;28;20674;-84
2022/09/23 12:00:35;;;;;;;1.83;1.83;;;15.30;92.90;;;;;;5031412;28;20181;-84
2022/09/23 12:03:07;;;;;;;2.17;1.93;;;15.30;92.90;;;;;;5031623;28;20192;-84
2022/09/23 12:05:40;;;;;;;3.63;3.30;;;15.30;92.60;;;;;;5031414;28;20204;-84
2022/09/23 12:08:25;;;;;;;2.10;2.00;;;15.30;92.10;;;;;;5031420;28;20520;-84
2022/09/23 12:11:13;;;;;;;2.50;2.10;;;15.30;91.80;;;;;;5031189;28;20166;-84
2022/09/23 12:13:44;;;;;;;1.87;1.87;;;15.30;92.20;;;;;;5029551;28;20622;-84
2022/09/23 12:16:27;;;;;;;1.87;1.77;;;15.30;92.10;;;;;;5031600;28;20156;-84
2022/09/23 12:19:14;;;;;;;2.33;2.17;;;15.30;92.20;;;;;;5031046;28;20165;-84
2022/09/23 12:22:15;;;;;;;1.83;1.73;;;15.30;92.90;;;;;;5029424;28;20196;-84
2022/09/23 12:24:56;;;;;;;1.70;1.60;;;15.30;92.90;;;;;;5008062;28;20205;-84
2022/09/23 12:27:36;;;;;;;1.87;1.77;;;15.40;92.30;;;;;;5031075;28;20258;-84
2022/09/23 12:30:10;;;;;;;2.40;1.80;;;15.40;92.60;;;;;;5030623;28;20267;-84
2022/09/23 12:32:37;;;;;;;1.60;1.50;;;15.50;92.00;;;;;;5029211;28;20549;-84
2022/09/23 12:35:03;;;;;;;2.27;2.10;;;15.50;91.20;;;;;;5030878;28;20169;-84
2022/09/23 12:37:36;;;;;;;8.57;4.00;;;15.50;90.90;;;;;;5029118;28;20203;-84
2022/09/23 12:40:27;;;;;;;3.73;2.47;;;15.40;91.50;;;;;;5029050;28;20212;-84
2022/09/23 12:42:53;;;;;;;2.30;2.20;;;15.40;91.70;;;;;;5032674;28;20235;-85
2022/09/23 12:45:33;;;;;;;1.83;1.73;;;15.40;91.00;;;;;;5032095;28;20231;-85
2022/09/23 12:48:19;;;;;;;1.73;1.63;;;15.50;90.70;;;;;;5030369;28;20166;-85
2022/09/23 12:50:55;;;;;;;1.60;1.60;;;15.60;91.30;;;;;;5009515;28;20741;-85
2022/09/23 12:53:33;;;;;;;2.13;2.00;;;15.50;92.10;;;;;;5029415;28;20597;-85
2022/09/23 12:56:21;;;;;;;1.83;1.73;;;15.50;91.90;;;;;;5028923;28;20651;-85
2022/09/23 12:58:47;;;;;;;1.90;1.50;;;15.60;92.00;;;;;;5031070;28;20523;-85
2022/09/23 13:01:13;;;;;;;1.70;1.60;;;15.60;92.30;;;;;;5030603;28;20235;-85
2022/09/23 13:06:40;;;;;;;4.83;1.90;;;15.70;92.10;;;;;;5029785;28;20264;-83
2022/09/23 13:09:15;;;;;;;1.73;1.60;;;15.80;91.70;;;;;;5029059;28;20205;-83
2022/09/23 13:11:44;;;;;;;1.87;1.77;;;15.70;92.10;;;;;;5032275;28;20164;-83
2022/09/23 13:14:20;;;;;;;2.00;1.50;;;15.80;92.50;;;;;;5031731;28;20180;-82
2022/09/23 13:16:47;;;;;;;3.17;1.90;;;15.80;92.10;;;;;;5031903;28;20192;-84
2022/09/23 13:19:25;;;;;;;3.40;2.90;;;15.70;91.80;;;;;;5042493;28;20172;-85
2022/09/23 13:21:58;;;;;;;1.90;1.80;;;15.70;91.80;;;;;;5054098;28;20196;-85
2022/09/23 13:24:27;;;;;;;1.80;1.70;;;15.70;91.70;;;;;;5044101;28;20229;-85
2022/09/23 13:27:01;;;;;;;2.10;2.00;;;15.80;92.10;;;;;;5032128;28;20203;-85
2022/09/23 13:29:32;;;;;;;3.07;2.87;;;15.80;91.90;;;;;;5030504;28;20175;-85
2022/09/23 13:32:00;;;;;;;2.00;1.90;;;15.80;91.30;;;;;;5029305;28;20175;-86
2022/09/23 13:34:32;;;;;;;2.00;1.90;;;15.80;91.00;;;;;;5030498;28;20263;-85
2022/09/23 13:37:40;;;;;;;1.60;1.60;;;15.80;91.60;;;;;;5030073;28;20178;-85